sensor_id;sensor_type;location;lat;lon;timestamp;temperature;humidity
18268;DHT22;9260;49.998;19.880;2022-07-05T00:09:24;18.40;99.90
18268;DHT22;9260;49.998;19.880;2022-07-05T00:19:29;18.50;99.90
18268;DHT22;9260;49.998;19.880;2022-07-05T00:29:33;18.50;99.90
18268;DHT22;9260;49.998;19.880;2022-07-05T00:39:38;18.50;99.90
18268;DHT22;9260;49.998;19.880;2022-07-05T00:49:43;18.50;99.90
18268;DHT22;9260;49.998;19.880;2022-07-05T00:59:49;18.50;99.90
18268;DHT22;9260;49.998;19.880;2022-07-05T01:09:53;18.40;99.90
18268;DHT22;9260;49.998;19.880;2022-07-05T01:19:59;18.50;99.90
18268;DHT22;9260;49.998;19.880;2022-07-05T01:30:06;18.60;99.90
18268;DHT22;9260;49.998;19.880;2022-07-05T01:40:11;18.60;99.90
18268;DHT22;9260;49.998;19.880;2022-07-05T01:50:17;18.60;99.90
18268;DHT22;9260;49.998;19.880;2022-07-05T02:00:24;18.50;99.90
18268;DHT22;9260;49.998;19.880;2022-07-05T02:10:29;18.60;99.90
18268;DHT22;9260;49.998;19.880;2022-07-05T02:20:34;18.70;99.90
18268;DHT22;9260;49.998;19.880;2022-07-05T02:30:40;18.70;99.90
18268;DHT22;9260;49.998;19.880;2022-07-05T02:40:44;18.70;99.90
18268;DHT22;9260;49.998;19.880;2022-07-05T02:50:51;18.70;99.90
18268;DHT22;9260;49.998;19.880;2022-07-05T03:00:55;18.60;99.90
18268;DHT22;9260;49.998;19.880;2022-07-05T03:11:03;18.60;99.90
18268;DHT22;9260;49.998;19.880;2022-07-05T03:21:10;18.60;99.90
18268;DHT22;9260;49.998;19.880;2022-07-05T03:31:15;18.60;99.90
18268;DHT22;9260;49.998;19.880;2022-07-05T03:41:20;18.60;99.90
18268;DHT22;9260;49.998;19.880;2022-07-05T03:51:27;18.60;99.90
18268;DHT22;9260;49.998;19.880;2022-07-05T04:01:33;18.50;99.90
18268;DHT22;9260;49.998;19.880;2022-07-05T04:11:39;18.60;99.90
18268;DHT22;9260;49.998;19.880;2022-07-05T04:21:44;18.60;99.90
18268;DHT22;9260;49.998;19.880;2022-07-05T04:31:49;18.60;99.90
18268;DHT22;9260;49.998;19.880;2022-07-05T04:41:53;18.50;99.90
18268;DHT22;9260;49.998;19.880;2022-07-05T04:51:58;18.70;99.90
18268;DHT22;9260;49.998;19.880;2022-07-05T05:02:04;19.10;99.90
18268;DHT22;9260;49.998;19.880;2022-07-05T05:12:09;19.30;99.90
18268;DHT22;9260;49.998;19.880;2022-07-05T05:22:13;19.50;99.90
18268;DHT22;9260;49.998;19.880;2022-07-05T05:32:18;19.50;99.90
18268;DHT22;9260;49.998;19.880;2022-07-05T05:42:22;19.30;99.90
18268;DHT22;9260;49.998;19.880;2022-07-05T05:52:28;18.80;99.90
18268;DHT22;9260;49.998;19.880;2022-07-05T06:02:32;18.50;99.90
18268;DHT22;9260;49.998;19.880;2022-07-05T06:12:38;18.40;99.90
18268;DHT22;9260;49.998;19.880;2022-07-05T06:22:42;18.50;99.90
18268;DHT22;9260;49.998;19.880;2022-07-05T06:32:48;18.40;99.90
18268;DHT22;9260;49.998;19.880;2022-07-05T06:42:54;18.20;99.90
18268;DHT22;9260;49.998;19.880;2022-07-05T06:53:08;18.20;99.90
18268;DHT22;9260;49.998;19.880;2022-07-05T07:03:12;18.00;99.90
18268;DHT22;9260;49.998;19.880;2022-07-05T07:13:37;18.00;99.90
18268;DHT22;9260;49.998;19.880;2022-07-05T07:23:41;18.40;99.90
18268;DHT22;9260;49.998;19.880;2022-07-05T07:33:46;18.60;99.90
18268;DHT22;9260;49.998;19.880;2022-07-05T07:43:50;18.70;99.90
18268;DHT22;9260;49.998;19.880;2022-07-05T07:53:55;19.00;99.90
18268;DHT22;9260;49.998;19.880;2022-07-05T08:04:02;19.30;99.90
18268;DHT22;9260;49.998;19.880;2022-07-05T08:14:07;19.60;99.90
18268;DHT22;9260;49.998;19.880;2022-07-05T08:24:12;19.90;99.90
18268;DHT22;9260;49.998;19.880;2022-07-05T08:34:19;20.20;99.90
18268;DHT22;9260;49.998;19.880;2022-07-05T08:44:23;19.80;99.90
18268;DHT22;9260;49.998;19.880;2022-07-05T08:54:29;19.40;99.90
18268;DHT22;9260;49.998;19.880;2022-07-05T09:04:36;19.50;99.90
18268;DHT22;9260;49.998;19.880;2022-07-05T09:14:47;20.00;99.90
18268;DHT22;9260;49.998;19.880;2022-07-05T09:24:52;20.70;99.90
18268;DHT22;9260;49.998;19.880;2022-07-05T09:45:24;20.50;99.90
18268;DHT22;9260;49.998;19.880;2022-07-05T09:55:29;19.80;99.90
18268;DHT22;9260;49.998;19.880;2022-07-05T10:05:33;19.90;99.90
18268;DHT22;9260;49.998;19.880;2022-07-05T10:15:39;20.20;99.90
18268;DHT22;9260;49.998;19.880;2022-07-05T10:25:45;20.80;99.90
18268;DHT22;9260;49.998;19.880;2022-07-05T10:35:52;21.10;99.90
18268;DHT22;9260;49.998;19.880;2022-07-05T10:45:57;21.40;99.90
18268;DHT22;9260;49.998;19.880;2022-07-05T10:56:11;22.10;99.90
18268;DHT22;9260;49.998;19.880;2022-07-05T11:06:19;22.70;99.90
18268;DHT22;9260;49.998;19.880;2022-07-05T11:16:28;23.60;99.90
18268;DHT22;9260;49.998;19.880;2022-07-05T11:26:34;24.00;99.90
18268;DHT22;9260;49.998;19.880;2022-07-05T11:36:40;23.50;99.90
18268;DHT22;9260;49.998;19.880;2022-07-05T11:46:44;23.40;99.90
18268;DHT22;9260;49.998;19.880;2022-07-05T11:56:52;23.10;99.90
18268;DHT22;9260;49.998;19.880;2022-07-05T12:06:56;22.60;99.90
18268;DHT22;9260;49.998;19.880;2022-07-05T12:17:13;21.60;99.90
18268;DHT22;9260;49.998;19.880;2022-07-05T12:27:26;21.70;99.90
18268;DHT22;9260;49.998;19.880;2022-07-05T12:37:32;21.30;99.90
18268;DHT22;9260;49.998;19.880;2022-07-05T12:47:37;21.00;99.90
18268;DHT22;9260;49.998;19.880;2022-07-05T12:57:52;20.70;99.90
18268;DHT22;9260;49.998;19.880;2022-07-05T13:08:05;20.40;99.90
18268;DHT22;9260;49.998;19.880;2022-07-05T13:18:10;20.50;99.90
18268;DHT22;9260;49.998;19.880;2022-07-05T13:28:14;21.00;99.90
18268;DHT22;9260;49.998;19.880;2022-07-05T13:38:19;21.60;99.90
18268;DHT22;9260;49.998;19.880;2022-07-05T13:48:23;22.70;99.90
18268;DHT22;9260;49.998;19.880;2022-07-05T14:10:04;21.50;99.90
18268;DHT22;9260;49.998;19.880;2022-07-05T14:20:09;21.60;99.90
18268;DHT22;9260;49.998;19.880;2022-07-05T14:30:15;21.60;99.90
18268;DHT22;9260;49.998;19.880;2022-07-05T14:40:19;21.40;99.90
18268;DHT22;9260;49.998;19.880;2022-07-05T14:50:27;21.50;99.90
18268;DHT22;9260;49.998;19.880;2022-07-05T15:00:30;21.40;99.90
18268;DHT22;9260;49.998;19.880;2022-07-05T15:10:36;21.50;99.90
18268;DHT22;9260;49.998;19.880;2022-07-05T15:20:40;21.10;99.90
18268;DHT22;9260;49.998;19.880;2022-07-05T15:30:45;20.80;99.90
18268;DHT22;9260;49.998;19.880;2022-07-05T15:40:49;20.60;99.90
18268;DHT22;9260;49.998;19.880;2022-07-05T15:50:55;20.30;99.90
18268;DHT22;9260;49.998;19.880;2022-07-05T16:01:03;20.00;99.90
18268;DHT22;9260;49.998;19.880;2022-07-05T16:11:09;19.60;99.90
18268;DHT22;9260;49.998;19.880;2022-07-05T16:21:14;19.30;99.90
18268;DHT22;9260;49.998;19.880;2022-07-05T16:31:20;19.20;99.90
18268;DHT22;9260;49.998;19.880;2022-07-05T16:41:24;19.20;99.90
18268;DHT22;9260;49.998;19.880;2022-07-05T16:51:29;19.40;99.90
18268;DHT22;9260;49.998;19.880;2022-07-05T17:01:33;19.40;99.90
18268;DHT22;9260;49.998;19.880;2022-07-05T17:11:39;19.30;99.90
18268;DHT22;9260;49.998;19.880;2022-07-05T17:21:43;19.00;99.90
18268;DHT22;9260;49.998;19.880;2022-07-05T17:31:48;18.70;99.90
18268;DHT22;9260;49.998;19.880;2022-07-05T17:41:52;18.40;99.90
18268;DHT22;9260;49.998;19.880;2022-07-05T17:51:57;18.20;99.90
18268;DHT22;9260;49.998;19.880;2022-07-05T18:02:16;18.00;99.90
18268;DHT22;9260;49.998;19.880;2022-07-05T18:12:22;17.90;99.90
18268;DHT22;9260;49.998;19.880;2022-07-05T18:22:27;17.70;99.90
18268;DHT22;9260;49.998;19.880;2022-07-05T18:32:33;17.60;99.90
18268;DHT22;9260;49.998;19.880;2022-07-05T18:42:44;17.50;99.90
18268;DHT22;9260;49.998;19.880;2022-07-05T18:52:49;17.40;99.90
18268;DHT22;9260;49.998;19.880;2022-07-05T19:02:54;17.30;99.90
18268;DHT22;9260;49.998;19.880;2022-07-05T19:13:05;17.20;99.90
18268;DHT22;9260;49.998;19.880;2022-07-05T19:23:26;17.20;99.90
18268;DHT22;9260;49.998;19.880;2022-07-05T19:33:31;17.10;99.90
18268;DHT22;9260;49.998;19.880;2022-07-05T19:43:35;16.90;99.90
18268;DHT22;9260;49.998;19.880;2022-07-05T19:53:40;16.70;99.90
18268;DHT22;9260;49.998;19.880;2022-07-05T20:03:45;16.60;99.90
18268;DHT22;9260;49.998;19.880;2022-07-05T20:13:50;16.50;99.90
18268;DHT22;9260;49.998;19.880;2022-07-05T20:23:54;16.50;99.90
18268;DHT22;9260;49.998;19.880;2022-07-05T20:33:59;16.50;99.90
18268;DHT22;9260;49.998;19.880;2022-07-05T20:44:03;16.60;99.90
18268;DHT22;9260;49.998;19.880;2022-07-05T20:54:09;16.60;99.90
18268;DHT22;9260;49.998;19.880;2022-07-05T21:04:15;16.60;99.90
18268;DHT22;9260;49.998;19.880;2022-07-05T21:14:20;16.60;99.90
18268;DHT22;9260;49.998;19.880;2022-07-05T21:24:24;16.60;99.90
18268;DHT22;9260;49.998;19.880;2022-07-05T21:34:30;16.50;99.90
18268;DHT22;9260;49.998;19.880;2022-07-05T21:44:33;16.40;99.90
18268;DHT22;9260;49.998;19.880;2022-07-05T21:54:39;16.40;99.90
18268;DHT22;9260;49.998;19.880;2022-07-05T22:04:43;16.40;99.90
18268;DHT22;9260;49.998;19.880;2022-07-05T22:14:50;16.30;99.90
18268;DHT22;9260;49.998;19.880;2022-07-05T22:24:54;16.30;99.90
18268;DHT22;9260;49.998;19.880;2022-07-05T22:35:00;16.30;99.90
18268;DHT22;9260;49.998;19.880;2022-07-05T22:45:04;16.20;99.90
18268;DHT22;9260;49.998;19.880;2022-07-05T22:55:10;16.30;99.90
18268;DHT22;9260;49.998;19.880;2022-07-05T23:05:14;16.20;99.90
18268;DHT22;9260;49.998;19.880;2022-07-05T23:15:19;16.10;99.90
18268;DHT22;9260;49.998;19.880;2022-07-05T23:25:24;16.00;99.90
18268;DHT22;9260;49.998;19.880;2022-07-05T23:35:29;15.90;99.90
18268;DHT22;9260;49.998;19.880;2022-07-05T23:45:33;16.00;99.90
18268;DHT22;9260;49.998;19.880;2022-07-05T23:55:39;16.00;99.90
